PWSweather.com
Personal Weather Stations
Station Observations
KILMORRI1
Goose Lake, Morris, IL 60450

Goose LakeMorris, IL 60450

Lat: 41.34, Lon: -88.3

Elevation: 523

Station Type:

Latest ConditionsUpdated 11:30:05 PM CDT Friday, Aug 17, 2018
Currently Today's Max Today's Min Today's Average
Temperature 70.8°F21.6°C 82.4°F28.0°C 67.5°F19.7°C 72.2°F22.3°C
Dew Point 67.7°F19.8°C 72.1°F22.3°C 49.9°F9.9°C 67.5°F19.7°C
Winds Calm Calm 3.5 mph -5.6 kmh - - 1.1 mph 1.8 kmh
Wind Gusts 1.2 mph1.9 kmh 9.2 mph14.8 kmh - -
Humidity 90% 95% 50% 86%
Pressure 29.95 in1014.2 mb 29.95 in1014.2 mb 29.85 in1010.8 mb -
Precipitation - 0.31 in7.9 mm - -
Hour Temp Dew Point Humidity Winds Wind Gusts Pressure Precip Precip Rate Daily Precip Total
11:30 PM 70.8°F21.6°C 67.7°F19.8°C 90% Calm Calm 1.2 mph1.9 kmh 29.95 in1014.2 mb - 0.00 in0.0 mm 0.31 in7.9 mm
11:20 PM 71.7°F22.1°C 68.6°F20.3°C 90% Calm Calm 1.2 mph1.9 kmh 29.95 in1014.2 mb - 0.00 in0.0 mm 0.31 in7.9 mm
11:10 PM 71.9°F22.2°C 68.8°F20.4°C 90% Calm Calm 1.2 mph1.9 kmh 29.95 in1014.2 mb - 0.00 in0.0 mm 0.31 in7.9 mm
11:00 PM 72.0°F22.2°C 68.9°F20.5°C 90% Calm Calm 1.2 mph1.9 kmh 29.95 in1014.2 mb - 0.00 in0.0 mm 0.31 in7.9 mm
10:50 PM 71.9°F22.2°C 68.8°F20.4°C 90% 1.2 mph NE1.9 kmh NE 2.3 mph3.7 kmh 29.95 in1014.2 mb - 0.00 in0.0 mm 0.31 in7.9 mm
10:40 PM 72.3°F22.4°C 68.8°F20.4°C 89% Calm Calm 1.2 mph1.9 kmh 29.94 in1013.9 mb - 0.00 in0.0 mm 0.31 in7.9 mm
10:30 PM 72.3°F22.4°C 68.9°F20.5°C 89% 1.2 mph NE1.9 kmh NE 1.2 mph1.9 kmh 29.95 in1014.2 mb - 0.00 in0.0 mm 0.31 in7.9 mm
10:20 PM 72.5°F22.5°C 69.1°F20.6°C 89% Calm Calm 1.2 mph1.9 kmh 29.94 in1013.9 mb - 0.00 in0.0 mm 0.31 in7.9 mm
10:10 PM 72.6°F22.6°C 68.8°F20.4°C 88% 1.2 mph E1.9 kmh E 1.2 mph1.9 kmh 29.94 in1013.9 mb - 0.00 in0.0 mm 0.31 in7.9 mm
10:00 PM 72.4°F22.4°C 68.6°F20.3°C 88% Calm Calm 1.2 mph1.9 kmh 29.94 in1013.9 mb - 0.00 in0.0 mm 0.31 in7.9 mm
09:50 PM 72.4°F22.4°C 68.6°F20.3°C 88% 1.2 mph NE1.9 kmh NE 1.2 mph1.9 kmh 29.94 in1013.9 mb - 0.00 in0.0 mm 0.31 in7.9 mm
09:40 PM 72.6°F22.6°C 68.5°F20.3°C 87% Calm Calm 1.2 mph1.9 kmh 29.94 in1013.9 mb - 0.00 in0.0 mm 0.31 in7.9 mm
09:30 PM 72.9°F22.7°C 68.4°F20.2°C 86% 1.2 mph NE1.9 kmh NE 2.3 mph3.7 kmh 29.94 in1013.9 mb - 0.00 in0.0 mm 0.31 in7.9 mm
09:20 PM 72.8°F22.7°C 68.3°F20.2°C 86% 2.3 mph NNE3.7 kmh NNE 3.5 mph5.6 kmh 29.94 in1013.9 mb - 0.00 in0.0 mm 0.31 in7.9 mm
09:10 PM 72.3°F22.4°C 68.6°F20.3°C 88% 1.2 mph NE1.9 kmh NE 2.3 mph3.7 kmh 29.93 in1013.5 mb - 0.00 in0.0 mm 0.31 in7.9 mm
09:00 PM 72.4°F22.4°C 68.3°F20.2°C 87% Calm Calm -- 29.93 in1013.5 mb - 0.00 in0.0 mm 0.31 in7.9 mm
08:50 PM 72.4°F22.4°C 68.0°F20.0°C 86% 2.3 mph E3.7 kmh E 3.5 mph5.6 kmh 29.93 in1013.5 mb - 0.00 in0.0 mm 0.31 in7.9 mm
08:40 PM 72.9°F22.7°C 67.8°F19.9°C 84% Calm Calm 1.2 mph1.9 kmh 29.93 in1013.5 mb - 0.00 in0.0 mm 0.31 in7.9 mm
08:30 PM 73.3°F22.9°C 67.8°F19.9°C 83% Calm Calm 1.2 mph1.9 kmh 29.93 in1013.5 mb - 0.00 in0.0 mm 0.31 in7.9 mm
08:20 PM 73.4°F23.0°C 67.6°F19.8°C 82% Calm Calm 1.2 mph1.9 kmh 29.93 in1013.5 mb - 0.00 in0.0 mm 0.31 in7.9 mm
08:10 PM 73.4°F23.0°C 66.9°F19.4°C 80% 1.2 mph NE1.9 kmh NE 2.3 mph3.7 kmh 29.92 in1013.2 mb - 0.00 in0.0 mm 0.31 in7.9 mm
08:00 PM 73.6°F23.1°C 67.0°F19.4°C 80% 1.2 mph NE1.9 kmh NE 3.5 mph5.6 kmh 29.91 in1012.9 mb - 0.00 in0.0 mm 0.31 in7.9 mm
07:50 PM 74.6°F23.7°C 66.9°F19.4°C 77% 3.5 mph E5.6 kmh E 3.5 mph5.6 kmh 29.91 in1012.9 mb - 0.00 in0.0 mm 0.31 in7.9 mm
07:40 PM 75.7°F24.3°C 68.0°F20.0°C 77% 2.3 mph E3.7 kmh E 3.5 mph5.6 kmh 29.91 in1012.9 mb - 0.00 in0.0 mm 0.31 in7.9 mm
07:30 PM 76.8°F24.9°C 69.5°F20.8°C 78% 3.5 mph E5.6 kmh E 5.8 mph9.3 kmh 29.91 in1012.9 mb - 0.00 in0.0 mm 0.31 in7.9 mm
07:20 PM 76.8°F24.9°C 69.8°F21.0°C 79% 3.5 mph E5.6 kmh E 9.2 mph14.8 kmh 29.91 in1012.9 mb - 0.00 in0.0 mm 0.31 in7.9 mm
07:10 PM 77.4°F25.2°C 71.5°F21.9°C 82% Calm Calm -- 29.89 in1012.2 mb - 0.00 in0.0 mm 0.31 in7.9 mm
07:00 PM 78.1°F25.6°C 72.1°F22.3°C 82% Calm Calm -- 29.89 in1012.2 mb - 0.00 in0.0 mm 0.31 in7.9 mm
06:50 PM 79.7°F26.5°C 70.6°F21.4°C 74% Calm Calm 1.2 mph1.9 kmh 29.89 in1012.2 mb - 0.00 in0.0 mm 0.31 in7.9 mm
06:40 PM 80.3°F26.8°C 70.5°F21.4°C 72% Calm Calm -- 29.88 in1011.9 mb - 0.00 in0.0 mm 0.31 in7.9 mm
06:30 PM 81.2°F27.3°C 71.3°F21.8°C 72% Calm Calm -- 29.88 in1011.9 mb - 0.00 in0.0 mm 0.31 in7.9 mm
06:20 PM 81.1°F27.3°C 70.8°F21.6°C 71% Calm Calm 1.2 mph1.9 kmh 29.88 in1011.9 mb - 0.00 in0.0 mm 0.31 in7.9 mm
05:52 PM 82.4°F28.0°C 70.3°F21.3°C 67% 0.4 mph SW0.6 kmh SW 1.0 mph1.6 kmh 29.88 in1011.9 mb - 0.00 in0.0 mm 0.31 in7.9 mm
05:42 PM 81.3°F27.4°C 70.6°F21.4°C 70% 0.5 mph SW0.8 kmh SW 2.0 mph3.2 kmh 29.88 in1011.9 mb - 0.00 in0.0 mm 0.31 in7.9 mm
05:11 PM 82.2°F27.9°C 70.6°F21.4°C 68% 1.4 mph NNW2.3 kmh NNW 4.0 mph6.4 kmh 29.88 in1011.9 mb - 0.00 in0.0 mm 0.31 in7.9 mm
04:50 PM 82.0°F27.8°C 70.0°F21.1°C 67% 1.0 mph SE1.6 kmh SE 2.0 mph3.2 kmh 29.88 in1011.9 mb - 0.00 in0.0 mm 0.31 in7.9 mm
04:40 PM 81.5°F27.5°C 69.5°F20.8°C 67% 1.2 mph S1.9 kmh S 4.0 mph6.4 kmh 29.88 in1011.9 mb - 0.00 in0.0 mm 0.31 in7.9 mm
04:20 PM 79.9°F26.6°C 70.4°F21.3°C 73% 1.5 mph SE2.4 kmh SE 3.0 mph4.8 kmh 29.88 in1011.9 mb - 0.00 in0.0 mm 0.31 in7.9 mm
04:12 PM 82.4°F28.0°C 71.2°F21.8°C 69% 1.8 mph S2.9 kmh S 3.0 mph4.8 kmh 29.88 in1011.9 mb - 0.00 in0.0 mm 0.31 in7.9 mm
03:50 PM 82.0°F27.8°C 71.2°F21.8°C 70% 1.9 mph S3.1 kmh S 3.0 mph4.8 kmh 29.88 in1011.9 mb - 0.00 in0.0 mm 0.31 in7.9 mm
03:40 PM 81.9°F27.7°C 70.7°F21.5°C 69% 2.0 mph SE3.2 kmh SE 4.0 mph6.4 kmh 29.88 in1011.9 mb - 0.00 in0.0 mm 0.31 in7.9 mm
03:20 PM 80.9°F27.2°C 70.2°F21.2°C 70% 2.6 mph E4.2 kmh E 6.0 mph9.7 kmh 29.89 in1012.2 mb - 0.00 in0.0 mm 0.31 in7.9 mm
03:10 PM 81.0°F27.2°C 71.5°F21.9°C 73% 1.6 mph S2.6 kmh S 4.0 mph6.4 kmh 29.89 in1012.2 mb - 0.00 in0.0 mm 0.31 in7.9 mm
02:50 PM 80.6°F27.0°C 69.9°F21.1°C 70% 2.1 mph S3.4 kmh S 4.0 mph6.4 kmh 29.89 in1012.2 mb - 0.00 in0.0 mm 0.31 in7.9 mm
02:40 PM 79.9°F26.6°C 68.0°F20.0°C 67% 1.8 mph SSE2.9 kmh SSE 5.0 mph8.0 kmh 29.90 in1012.5 mb - 0.00 in0.0 mm 0.31 in7.9 mm
02:20 PM 78.0°F25.6°C 69.4°F20.8°C 75% 2.4 mph S3.9 kmh S 3.0 mph4.8 kmh 29.90 in1012.5 mb - 0.00 in0.0 mm 0.31 in7.9 mm
02:10 PM 77.6°F25.3°C 70.2°F21.2°C 78% 1.3 mph E2.1 kmh E 3.0 mph4.8 kmh 29.91 in1012.9 mb - 0.00 in0.0 mm 0.31 in7.9 mm
01:50 PM 77.2°F25.1°C 69.0°F20.6°C 76% 1.4 mph E2.3 kmh E 2.0 mph3.2 kmh 29.91 in1012.9 mb - 0.00 in0.0 mm 0.31 in7.9 mm
01:40 PM 77.4°F25.2°C 67.7°F19.8°C 72% 1.9 mph SSW3.1 kmh SSW 3.0 mph4.8 kmh 29.91 in1012.9 mb - 0.00 in0.0 mm 0.31 in7.9 mm
01:20 PM 76.9°F24.9°C 68.8°F20.4°C 76% 0.5 mph SSW0.8 kmh SSW 1.0 mph1.6 kmh 29.92 in1013.2 mb - 0.00 in0.0 mm 0.31 in7.9 mm
01:10 PM 75.7°F24.3°C 67.6°F19.8°C 76% 0.5 mph SW0.8 kmh SW 1.0 mph1.6 kmh 29.92 in1013.2 mb - 0.00 in0.0 mm 0.31 in7.9 mm
12:51 PM 73.8°F23.2°C 70.0°F21.1°C 88% 0.9 mph SSW1.4 kmh SSW 2.0 mph3.2 kmh 29.92 in1013.2 mb - 0.00 in0.0 mm 0.31 in7.9 mm
12:40 PM 72.6°F22.6°C 68.8°F20.4°C 88% 2.5 mph SW4.0 kmh SW 4.0 mph6.4 kmh 29.92 in1013.2 mb - 0.00 in0.0 mm 0.31 in7.9 mm
12:20 PM 71.2°F21.8°C 68.2°F20.1°C 90% 0.5 mph S0.8 kmh S 2.0 mph3.2 kmh 29.92 in1013.2 mb - 0.00 in0.0 mm 0.31 in7.9 mm
12:10 PM 71.0°F21.7°C 68.6°F20.3°C 92% 1.8 mph S2.9 kmh S 3.0 mph4.8 kmh 29.92 in1013.2 mb - 0.00 in0.0 mm 0.31 in7.9 mm
11:50 AM 69.7°F20.9°C 67.6°F19.8°C 93% 2.0 mph S3.2 kmh S 2.0 mph3.2 kmh 29.93 in1013.5 mb - 0.01 in0.3 mm 0.31 in7.9 mm
11:40 AM 69.7°F20.9°C 67.9°F19.9°C 94% 1.5 mph SSW2.4 kmh SSW 5.0 mph8.0 kmh 29.93 in1013.5 mb - 0.01 in0.3 mm 0.30 in7.6 mm
11:20 AM 70.2°F21.2°C 68.4°F20.2°C 94% 1.7 mph SSW2.7 kmh SSW 2.0 mph3.2 kmh 29.93 in1013.5 mb - 0.00 in0.0 mm 0.29 in7.4 mm
11:10 AM 70.4°F21.3°C 68.6°F20.3°C 94% 1.2 mph SW1.9 kmh SW 2.0 mph3.2 kmh 29.92 in1013.2 mb - 0.00 in0.0 mm 0.29 in7.4 mm
10:50 AM 70.5°F21.4°C 68.7°F20.4°C 94% 0.8 mph SE1.3 kmh SE 3.0 mph4.8 kmh 29.91 in1012.9 mb - 0.00 in0.0 mm 0.29 in7.4 mm
10:40 AM 70.2°F21.2°C 68.4°F20.2°C 94% 0.2 mph SSE0.3 kmh SSE 1.0 mph1.6 kmh 29.91 in1012.9 mb - 0.00 in0.0 mm 0.29 in7.4 mm
10:20 AM 70.1°F21.2°C 68.3°F20.2°C 94% 0.7 mph SSW1.1 kmh SSW 2.0 mph3.2 kmh 29.91 in1012.9 mb - 0.00 in0.0 mm 0.29 in7.4 mm
10:10 AM 70.0°F21.1°C 68.2°F20.1°C 94% 1.2 mph S1.9 kmh S 2.0 mph3.2 kmh 29.91 in1012.9 mb - 0.00 in0.0 mm 0.29 in7.4 mm
09:50 AM 70.1°F21.2°C 68.3°F20.2°C 94% 0.8 mph SSE1.3 kmh SSE 2.0 mph3.2 kmh 29.91 in1012.9 mb - 0.00 in0.0 mm 0.29 in7.4 mm
09:40 AM 70.1°F21.2°C 68.3°F20.2°C 94% 1.2 mph S1.9 kmh S 5.0 mph8.0 kmh 29.91 in1012.9 mb - 0.00 in0.0 mm 0.29 in7.4 mm
09:20 AM 70.0°F21.1°C 68.2°F20.1°C 94% 1.8 mph SW2.9 kmh SW 2.0 mph3.2 kmh 29.90 in1012.5 mb - 0.00 in0.0 mm 0.29 in7.4 mm
08:50 AM 69.4°F20.8°C 49.9°F9.9°C 50% Calm Calm -- 29.91 in1012.9 mb - 0.00 in0.0 mm 0.29 in7.4 mm
08:40 AM 69.4°F20.8°C 49.9°F9.9°C 50% Calm Calm -- 29.91 in1012.9 mb - 0.00 in0.0 mm 0.29 in7.4 mm
08:10 AM 69.2°F20.7°C 67.7°F19.8°C 95% Calm Calm 1.2 mph1.9 kmh 29.91 in1012.9 mb - 0.00 in0.0 mm 0.28 in7.1 mm
07:00 AM 67.9°F19.9°C 66.4°F19.1°C 95% Calm Calm -- 29.89 in1012.2 mb - 0.00 in0.0 mm 0.26 in6.6 mm
06:50 AM 67.8°F19.9°C 66.0°F18.9°C 94% Calm Calm 1.2 mph1.9 kmh 29.89 in1012.2 mb - 0.01 in0.3 mm 0.26 in6.6 mm
06:40 AM 67.7°F19.8°C 65.9°F18.8°C 94% 1.2 mph E1.9 kmh E 2.3 mph3.7 kmh 29.89 in1012.2 mb - 0.00 in0.0 mm 0.25 in6.4 mm
06:30 AM 67.5°F19.7°C 65.7°F18.7°C 94% 2.3 mph E3.7 kmh E 3.5 mph5.6 kmh 29.89 in1012.2 mb - 0.00 in0.0 mm 0.25 in6.4 mm
06:20 AM 67.5°F19.7°C 66.0°F18.9°C 95% 1.2 mph SE1.9 kmh SE 2.3 mph3.7 kmh 29.89 in1012.2 mb - 0.00 in0.0 mm 0.25 in6.4 mm
06:10 AM 67.5°F19.7°C 65.7°F18.7°C 94% 1.2 mph SE1.9 kmh SE 2.3 mph3.7 kmh 29.90 in1012.5 mb - 0.00 in0.0 mm 0.25 in6.4 mm
06:00 AM 67.6°F19.8°C 65.8°F18.8°C 94% Calm Calm -- 29.90 in1012.5 mb - 0.00 in0.0 mm 0.25 in6.4 mm
05:50 AM 67.5°F19.7°C 65.7°F18.7°C 94% Calm Calm 2.3 mph3.7 kmh 29.91 in1012.9 mb - 0.00 in0.0 mm 0.25 in6.4 mm
05:40 AM 67.5°F19.7°C 65.7°F18.7°C 94% 1.2 mph S1.9 kmh S 3.5 mph5.6 kmh 29.91 in1012.9 mb - 0.00 in0.0 mm 0.25 in6.4 mm
05:30 AM 67.5°F19.7°C 65.7°F18.7°C 94% 3.5 mph SW5.6 kmh SW 5.8 mph9.3 kmh 29.91 in1012.9 mb - 0.00 in0.0 mm 0.25 in6.4 mm
05:20 AM 67.8°F19.9°C 66.3°F19.1°C 95% 2.3 mph SSW3.7 kmh SSW 3.5 mph5.6 kmh 29.91 in1012.9 mb - 0.00 in0.0 mm 0.25 in6.4 mm
05:10 AM 67.8°F19.9°C 66.0°F18.9°C 94% 2.3 mph S3.7 kmh S 2.3 mph3.7 kmh 29.90 in1012.5 mb - 0.00 in0.0 mm 0.25 in6.4 mm
05:00 AM 67.9°F19.9°C 66.4°F19.1°C 95% 2.3 mph S3.7 kmh S 3.5 mph5.6 kmh 29.90 in1012.5 mb - 0.00 in0.0 mm 0.25 in6.4 mm
04:50 AM 68.1°F20.1°C 66.6°F19.2°C 95% 1.2 mph S1.9 kmh S 2.3 mph3.7 kmh 29.90 in1012.5 mb - 0.00 in0.0 mm 0.25 in6.4 mm
04:40 AM 68.0°F20.0°C 66.5°F19.2°C 95% 1.2 mph S1.9 kmh S 2.3 mph3.7 kmh 29.90 in1012.5 mb - 0.00 in0.0 mm 0.25 in6.4 mm
04:30 AM 67.8°F19.9°C 66.0°F18.9°C 94% 1.2 mph S1.9 kmh S 2.3 mph3.7 kmh 29.90 in1012.5 mb - 0.00 in0.0 mm 0.25 in6.4 mm
04:20 AM 67.9°F19.9°C 66.5°F19.2°C 95% 1.2 mph S1.9 kmh S 3.5 mph5.6 kmh 29.90 in1012.5 mb - 0.00 in0.0 mm 0.25 in6.4 mm
04:10 AM 67.6°F19.8°C 65.8°F18.8°C 94% Calm Calm 1.2 mph1.9 kmh 29.90 in1012.5 mb - 0.00 in0.0 mm 0.25 in6.4 mm
04:00 AM 67.9°F19.9°C 66.1°F18.9°C 94% Calm Calm 1.2 mph1.9 kmh 29.89 in1012.2 mb - 0.00 in0.0 mm 0.25 in6.4 mm
03:50 AM 68.0°F20.0°C 66.2°F19.0°C 94% Calm Calm -- 29.88 in1011.9 mb - 0.00 in0.0 mm 0.25 in6.4 mm
03:40 AM 67.9°F19.9°C 66.1°F18.9°C 94% Calm Calm 1.2 mph1.9 kmh 29.88 in1011.9 mb - 0.00 in0.0 mm 0.25 in6.4 mm
03:30 AM 67.7°F19.8°C 65.9°F18.8°C 94% Calm Calm 1.2 mph1.9 kmh 29.87 in1011.5 mb - 0.00 in0.0 mm 0.25 in6.4 mm
03:20 AM 67.8°F19.9°C 66.0°F18.9°C 94% 1.2 mph SSE1.9 kmh SSE 1.2 mph1.9 kmh 29.87 in1011.5 mb - 0.00 in0.0 mm 0.25 in6.4 mm
03:10 AM 67.6°F19.8°C 65.8°F18.8°C 94% 1.2 mph SE1.9 kmh SE 2.3 mph3.7 kmh 29.87 in1011.5 mb - 0.00 in0.0 mm 0.25 in6.4 mm
03:00 AM 67.7°F19.8°C 65.9°F18.8°C 94% Calm Calm -- 29.85 in1010.8 mb - 0.00 in0.0 mm 0.25 in6.4 mm
02:50 AM 67.7°F19.8°C 65.9°F18.8°C 94% 1.2 mph E1.9 kmh E 2.3 mph3.7 kmh 29.85 in1010.8 mb - 0.00 in0.0 mm 0.25 in6.4 mm
02:40 AM 67.6°F19.8°C 65.9°F18.8°C 94% 1.2 mph E1.9 kmh E 2.3 mph3.7 kmh 29.86 in1011.2 mb - 0.00 in0.0 mm 0.25 in6.4 mm
02:30 AM 67.7°F19.8°C 65.9°F18.8°C 94% 1.2 mph E1.9 kmh E 1.2 mph1.9 kmh 29.86 in1011.2 mb - 0.00 in0.0 mm 0.25 in6.4 mm
02:20 AM 67.7°F19.8°C 65.6°F18.7°C 93% Calm Calm -- 29.86 in1011.2 mb - 0.00 in0.0 mm 0.25 in6.4 mm
02:10 AM 68.0°F20.0°C 66.2°F19.0°C 94% 1.2 mph E1.9 kmh E 2.3 mph3.7 kmh 29.87 in1011.5 mb - 0.00 in0.0 mm 0.25 in6.4 mm
02:00 AM 68.1°F20.1°C 66.0°F18.9°C 93% Calm Calm -- 29.87 in1011.5 mb - 0.00 in0.0 mm 0.25 in6.4 mm
01:50 AM 68.1°F20.1°C 66.0°F18.9°C 93% Calm Calm -- 29.89 in1012.2 mb - 0.00 in0.0 mm 0.25 in6.4 mm
01:40 AM 68.2°F20.1°C 66.1°F18.9°C 93% Calm Calm 1.2 mph1.9 kmh 29.89 in1012.2 mb - 0.00 in0.0 mm 0.25 in6.4 mm
01:30 AM 68.1°F20.1°C 66.0°F18.9°C 93% 1.2 mph ESE1.9 kmh ESE 2.3 mph3.7 kmh 29.88 in1011.9 mb - 0.01 in0.3 mm 0.25 in6.4 mm
01:20 AM 68.2°F20.1°C 66.1°F18.9°C 93% 1.2 mph E1.9 kmh E 1.2 mph1.9 kmh 29.88 in1011.9 mb - 0.02 in0.5 mm 0.24 in6.1 mm
01:10 AM 68.2°F20.1°C 66.1°F18.9°C 93% Calm Calm 2.3 mph3.7 kmh 29.90 in1012.5 mb - 0.03 in0.8 mm 0.22 in5.6 mm
01:00 AM 68.4°F20.2°C 66.3°F19.1°C 93% 1.2 mph SE1.9 kmh SE 1.2 mph1.9 kmh 29.91 in1012.9 mb - 0.02 in0.5 mm 0.19 in4.8 mm
12:50 AM 68.2°F20.1°C 65.8°F18.8°C 92% 3.5 mph S5.6 kmh S 5.8 mph9.3 kmh 29.92 in1013.2 mb - 0.01 in0.3 mm 0.17 in4.3 mm
12:40 AM 68.1°F20.1°C 65.7°F18.7°C 92% Calm Calm 2.3 mph3.7 kmh 29.90 in1012.5 mb - 0.01 in0.3 mm 0.16 in4.1 mm
12:30 AM 68.1°F20.1°C 65.4°F18.6°C 91% Calm Calm 1.2 mph1.9 kmh 29.89 in1012.2 mb - 0.03 in0.8 mm 0.15 in3.8 mm
12:20 AM 68.7°F20.4°C 66.0°F18.9°C 91% 1.2 mph SE1.9 kmh SE 3.5 mph5.6 kmh 29.90 in1012.5 mb - 0.03 in0.8 mm 0.13 in3.3 mm
12:10 AM 68.8°F20.4°C 65.7°F18.7°C 90% 3.5 mph NE5.6 kmh NE 6.9 mph11.1 kmh 29.89 in1012.2 mb - 0.10 in2.5 mm 0.10 in2.5 mm
12:00 AM 69.2°F20.7°C 65.1°F18.4°C 87% 3.5 mph NNW5.6 kmh NNW 3.5 mph5.6 kmh 29.91 in1012.9 mb - 0.17 in4.3 mm 0.17 in4.3 mm